createdAt,value
2022-07-25T00:00:30.326Z,52.83
2022-07-25T00:02:34.405Z,53.03
2022-07-25T00:03:34.330Z,53.03
2022-07-25T00:05:38.329Z,53.25
2022-07-25T00:06:38.326Z,52.73
2022-07-25T00:08:42.321Z,53.13
2022-07-25T00:09:42.312Z,53.13
2022-07-25T00:11:49.574Z,52.83
2022-07-25T00:12:49.560Z,53.13
2022-07-25T00:14:53.608Z,53.13
2022-07-25T00:15:53.602Z,53.13
2022-07-25T00:17:57.580Z,53.03
2022-07-25T00:18:57.571Z,53.31
2022-07-25T00:21:01.558Z,53.51
2022-07-25T00:22:01.544Z,53.61
2022-07-25T00:24:05.860Z,53.41
2022-07-25T00:25:05.554Z,53.61
2022-07-25T00:27:09.571Z,53.41
2022-07-25T00:28:09.640Z,53.80
2022-07-25T00:30:13.566Z,53.70
2022-07-25T00:31:13.639Z,53.61
2022-07-25T00:33:17.569Z,53.61
2022-07-25T00:34:17.556Z,53.51
2022-07-25T00:36:21.563Z,53.51
2022-07-25T00:37:21.596Z,53.41
2022-07-25T00:39:14.474Z,53.31
2022-07-25T00:40:14.471Z,53.22
2022-07-25T00:42:18.523Z,53.58
2022-07-25T00:43:18.497Z,53.39
2022-07-25T00:45:22.504Z,53.41
2022-07-25T00:46:22.569Z,53.22
2022-07-25T00:48:26.637Z,53.51
2022-07-25T00:49:26.493Z,53.29
2022-07-25T00:50:26.535Z,53.31
2022-07-25T00:51:26.501Z,53.51
2022-07-25T00:52:26.509Z,53.48
2022-07-25T00:53:26.540Z,53.67
2022-07-25T00:54:26.524Z,53.51
2022-07-25T00:55:26.510Z,53.48
2022-07-25T00:56:26.521Z,53.51
2022-07-25T00:57:26.525Z,53.58
2022-07-25T00:58:26.533Z,53.48
2022-07-25T00:59:26.518Z,53.58
2022-07-25T01:00:26.537Z,53.67
2022-07-25T01:01:26.584Z,53.61
2022-07-25T01:02:26.587Z,54.25
2022-07-25T01:03:26.558Z,54.54
2022-07-25T01:04:26.531Z,54.35
2022-07-25T01:05:26.537Z,54.74
2022-07-25T01:06:26.550Z,54.64
2022-07-25T01:07:26.545Z,54.47
2022-07-25T01:08:26.551Z,54.44
2022-07-25T01:09:26.560Z,55.02
2022-07-25T01:10:26.559Z,54.83
2022-07-25T01:11:26.567Z,54.54
2022-07-25T01:12:26.568Z,55.22
2022-07-25T01:13:26.566Z,55.70
2022-07-25T01:14:26.564Z,55.41
2022-07-25T01:15:26.558Z,55.51
2022-07-25T01:16:26.616Z,55.41
2022-07-25T01:17:26.566Z,55.51
2022-07-25T01:18:26.573Z,55.51
2022-07-25T01:19:26.587Z,55.51
2022-07-25T01:20:26.573Z,55.41
2022-07-25T01:21:26.583Z,56.09
2022-07-25T01:22:26.582Z,55.99
2022-07-25T01:23:26.584Z,55.60
2022-07-25T01:24:26.597Z,55.51
2022-07-25T01:25:26.594Z,55.60
2022-07-25T01:26:26.585Z,55.60
2022-07-25T01:27:26.590Z,55.41
2022-07-25T01:28:26.599Z,55.41
2022-07-25T01:29:26.596Z,55.51
2022-07-25T01:30:26.611Z,55.79
2022-07-25T01:31:26.750Z,55.51
2022-07-25T01:32:26.597Z,55.51
2022-07-25T01:33:26.641Z,55.41
2022-07-25T01:34:26.667Z,55.41
2022-07-25T01:35:26.605Z,55.70
2022-07-25T01:36:26.618Z,55.31
2022-07-25T01:37:26.620Z,55.51
2022-07-25T01:38:26.614Z,55.31
2022-07-25T01:39:26.615Z,55.41
2022-07-25T01:40:26.626Z,55.41
2022-07-25T01:41:26.628Z,55.99
2022-07-25T01:42:26.635Z,56.09
2022-07-25T01:43:26.643Z,55.79
2022-07-25T01:44:26.634Z,55.99
2022-07-25T01:45:26.636Z,55.79
2022-07-25T01:46:26.708Z,55.99
2022-07-25T01:47:26.635Z,56.18
2022-07-25T01:48:26.662Z,55.51
2022-07-25T01:49:26.648Z,55.41
2022-07-25T01:50:26.647Z,55.60
2022-07-25T01:51:26.656Z,55.60
2022-07-25T01:52:26.672Z,55.96
2022-07-25T01:53:26.674Z,55.77
2022-07-25T01:54:26.666Z,55.89
2022-07-25T01:55:26.662Z,56.09
2022-07-25T01:56:26.656Z,56.05
2022-07-25T01:57:30.604Z,55.89
2022-07-25T01:58:26.674Z,56.05
2022-07-25T01:59:26.663Z,55.60
2022-07-25T02:00:26.666Z,55.87
2022-07-25T02:01:26.809Z,55.38
2022-07-25T02:02:26.706Z,55.29
2022-07-25T02:03:26.674Z,55.48
2022-07-25T02:04:26.745Z,55.41
2022-07-25T02:05:26.681Z,55.38
2022-07-25T02:06:26.696Z,55.48
2022-07-25T02:07:26.695Z,55.48
2022-07-25T02:08:26.689Z,55.48
2022-07-25T02:09:26.688Z,55.02
2022-07-25T02:10:26.687Z,55.48
2022-07-25T02:11:26.699Z,54.71
2022-07-25T02:12:26.697Z,54.83
2022-07-25T02:13:26.703Z,54.42
2022-07-25T02:14:26.711Z,54.90
2022-07-25T02:15:26.703Z,54.90
2022-07-25T02:16:28.789Z,54.71
2022-07-25T02:17:26.796Z,54.61
2022-07-25T02:18:26.729Z,54.52
2022-07-25T02:19:26.723Z,54.52
2022-07-25T02:20:26.753Z,54.13
2022-07-25T02:21:26.717Z,54.13
2022-07-25T02:22:26.736Z,54.32
2022-07-25T02:23:26.720Z,54.61
2022-07-25T02:24:26.729Z,54.13
2022-07-25T02:25:26.724Z,54.22
2022-07-25T02:26:26.728Z,54.42
2022-07-25T02:27:26.726Z,54.71
2022-07-25T02:28:26.726Z,54.22
2022-07-25T02:29:26.803Z,54.22
2022-07-25T02:30:26.813Z,54.42
2022-07-25T02:31:26.808Z,54.32
2022-07-25T02:32:26.749Z,54.22
2022-07-25T02:33:26.743Z,54.22
2022-07-25T02:34:26.747Z,54.32
2022-07-25T02:35:26.785Z,54.32
2022-07-25T02:36:26.751Z,54.22
2022-07-25T02:37:26.764Z,54.42
2022-07-25T02:38:26.774Z,54.22
2022-07-25T02:39:26.750Z,53.65
2022-07-25T02:40:26.789Z,53.74
2022-07-25T02:41:26.771Z,54.32
2022-07-25T02:42:26.780Z,54.22
2022-07-25T02:43:26.784Z,54.32
2022-07-25T02:44:26.773Z,54.13
2022-07-25T02:45:26.782Z,54.61
2022-07-25T02:46:26.798Z,54.61
2022-07-25T02:47:26.800Z,54.52
2022-07-25T02:48:26.882Z,54.52
2022-07-25T02:49:26.773Z,54.52
2022-07-25T02:50:26.780Z,54.90
2022-07-25T02:51:26.798Z,54.52
2022-07-25T02:52:26.820Z,55.29
2022-07-25T02:53:47.236Z,54.61
2022-07-25T02:54:26.793Z,54.80
2022-07-25T02:55:26.802Z,54.71
2022-07-25T02:56:29.833Z,54.61
2022-07-25T02:57:26.787Z,55.00
2022-07-25T02:58:26.793Z,55.00
2022-07-25T02:59:32.018Z,54.71
2022-07-25T03:00:26.797Z,54.52
2022-07-25T03:01:26.835Z,55.29
2022-07-25T03:02:26.796Z,54.61
2022-07-25T03:03:26.817Z,55.07
2022-07-25T03:04:26.887Z,55.19
2022-07-25T03:05:26.824Z,54.61
2022-07-25T03:06:26.808Z,54.52
2022-07-25T03:07:26.822Z,55.00
2022-07-25T03:08:26.814Z,55.09
2022-07-25T03:09:26.824Z,55.48
2022-07-25T03:10:26.835Z,55.48
2022-07-25T03:11:26.821Z,55.16
2022-07-25T03:12:26.884Z,55.57
2022-07-25T03:13:26.829Z,55.48
2022-07-25T03:14:26.824Z,55.00
2022-07-25T03:15:26.830Z,55.38
2022-07-25T03:16:26.876Z,55.48
2022-07-25T03:17:26.832Z,55.55
2022-07-25T03:18:26.830Z,55.55
2022-07-25T03:19:26.825Z,55.35
2022-07-25T03:20:26.834Z,55.26
2022-07-25T03:21:26.845Z,55.26
2022-07-25T03:22:26.832Z,55.35
2022-07-25T03:23:26.839Z,55.45
2022-07-25T03:24:26.836Z,55.45
2022-07-25T03:25:26.843Z,55.45
2022-07-25T03:26:26.848Z,55.74
2022-07-25T03:27:26.845Z,55.55
2022-07-25T03:28:26.846Z,55.45
2022-07-25T03:29:26.851Z,55.74
2022-07-25T03:30:26.858Z,55.74
2022-07-25T03:31:26.919Z,56.03
2022-07-25T03:32:26.858Z,55.74
2022-07-25T03:33:26.862Z,55.65
2022-07-25T03:34:26.859Z,55.74
2022-07-25T03:35:26.874Z,55.74
2022-07-25T03:36:26.868Z,56.03
2022-07-25T03:37:26.884Z,55.74
2022-07-25T03:38:26.866Z,55.83
2022-07-25T03:39:26.866Z,56.03
2022-07-25T03:40:26.871Z,55.74
2022-07-25T03:41:27.906Z,55.74
2022-07-25T03:42:27.018Z,55.93
2022-07-25T03:43:26.882Z,55.93
2022-07-25T03:44:26.879Z,55.83
2022-07-25T03:45:26.982Z,55.45
2022-07-25T03:46:26.931Z,55.26
2022-07-25T03:47:26.891Z,55.45
2022-07-25T03:48:26.920Z,55.35
2022-07-25T03:49:26.891Z,55.16
2022-07-25T03:50:26.890Z,55.55
2022-07-25T03:51:26.882Z,55.45
2022-07-25T03:52:26.899Z,55.35
2022-07-25T03:53:26.891Z,55.93
2022-07-25T03:54:26.909Z,55.74
2022-07-25T03:55:26.930Z,55.93
2022-07-25T03:56:26.907Z,55.83
2022-07-25T03:57:26.915Z,56.03
2022-07-25T03:58:26.907Z,56.22
2022-07-25T03:59:26.928Z,56.22
2022-07-25T04:00:26.907Z,55.93
2022-07-25T04:01:27.085Z,56.03
2022-07-25T04:02:26.962Z,55.93
2022-07-25T04:03:26.913Z,56.03
2022-07-25T04:04:26.935Z,56.03
2022-07-25T04:05:26.937Z,56.03
2022-07-25T04:06:26.930Z,56.12
2022-07-25T04:07:26.931Z,55.83
2022-07-25T04:08:26.925Z,56.03
2022-07-25T04:09:26.932Z,55.93
2022-07-25T04:10:26.937Z,55.83
2022-07-25T04:11:26.938Z,56.22
2022-07-25T04:12:26.939Z,56.03
2022-07-25T04:13:26.934Z,56.12
2022-07-25T04:14:26.954Z,56.22
2022-07-25T04:15:26.958Z,56.32
2022-07-25T04:16:27.986Z,56.22
2022-07-25T04:17:26.937Z,56.22
2022-07-25T04:18:28.024Z,56.03
2022-07-25T04:19:28.798Z,56.22
2022-07-25T04:20:26.942Z,56.22
2022-07-25T04:21:26.960Z,56.22
2022-07-25T04:22:26.942Z,55.93
2022-07-25T04:23:27.017Z,55.93
2022-07-25T04:24:26.947Z,56.03
2022-07-25T04:25:26.977Z,56.22
2022-07-25T04:26:26.980Z,55.83
2022-07-25T04:27:26.968Z,56.03
2022-07-25T04:28:26.975Z,55.83
2022-07-25T04:29:26.976Z,55.93
2022-07-25T04:30:26.964Z,55.83
2022-07-25T04:31:27.021Z,55.74
2022-07-25T04:32:26.993Z,56.22
2022-07-25T04:33:26.966Z,55.83
2022-07-25T04:34:26.968Z,56.12
2022-07-25T04:35:26.975Z,56.12
2022-07-25T04:36:26.972Z,56.32
2022-07-25T04:37:26.973Z,56.12
2022-07-25T04:38:26.987Z,56.41
2022-07-25T04:39:26.977Z,55.83
2022-07-25T04:40:26.975Z,56.70
2022-07-25T04:41:26.986Z,56.03
2022-07-25T04:42:26.979Z,56.22
2022-07-25T04:43:26.995Z,56.12
2022-07-25T04:44:26.998Z,56.12
2022-07-25T04:45:27.015Z,56.22
2022-07-25T04:46:26.998Z,56.41
2022-07-25T04:47:27.003Z,56.51
2022-07-25T04:48:27.179Z,56.70
2022-07-25T04:49:27.023Z,56.60
2022-07-25T04:50:27.002Z,56.51
2022-07-25T04:51:26.997Z,56.22
2022-07-25T04:52:26.995Z,56.12
2022-07-25T04:53:27.003Z,56.22
2022-07-25T04:54:27.004Z,56.32
2022-07-25T04:55:27.070Z,56.70
2022-07-25T04:56:27.016Z,56.41
2022-07-25T04:57:27.019Z,56.32
2022-07-25T04:58:27.033Z,56.60
2022-07-25T04:59:27.048Z,56.70
2022-07-25T05:00:27.016Z,56.41
2022-07-25T05:01:27.093Z,56.32
2022-07-25T05:02:27.066Z,55.93
2022-07-25T05:03:27.031Z,56.22
2022-07-25T05:04:27.048Z,56.35
2022-07-25T05:05:27.029Z,56.41
2022-07-25T05:06:27.147Z,56.70
2022-07-25T05:07:27.069Z,56.60
2022-07-25T05:08:35.712Z,56.73
2022-07-25T05:10:20.495Z,56.73
2022-07-25T05:11:20.165Z,56.73
2022-07-25T05:13:24.272Z,56.54
2022-07-25T05:14:24.234Z,56.63
2022-07-25T05:16:17.229Z,56.63
2022-07-25T05:17:17.135Z,56.54
2022-07-25T05:19:10.077Z,56.54
2022-07-25T05:20:10.059Z,56.63
2022-07-25T05:22:03.100Z,56.82
2022-07-25T05:23:03.080Z,56.44
2022-07-25T05:24:03.329Z,56.44
2022-07-25T05:25:03.074Z,56.54
2022-07-25T05:26:03.065Z,56.44
2022-07-25T05:27:03.087Z,56.25
2022-07-25T05:28:03.081Z,56.35
2022-07-25T05:29:03.076Z,56.15
2022-07-25T05:30:03.111Z,56.15
2022-07-25T05:31:03.160Z,56.25
2022-07-25T05:32:03.170Z,56.25
2022-07-25T05:33:03.102Z,56.18
2022-07-25T05:34:03.346Z,56.37
2022-07-25T05:35:03.084Z,56.18
2022-07-25T05:36:03.108Z,55.89
2022-07-25T05:37:03.131Z,56.09
2022-07-25T05:38:03.106Z,55.79
2022-07-25T05:39:03.105Z,55.79
2022-07-25T05:40:03.149Z,55.34
2022-07-25T05:41:03.089Z,55.44
2022-07-25T05:42:03.120Z,54.86
2022-07-25T05:43:03.793Z,54.57
2022-07-25T05:44:03.194Z,54.21
2022-07-25T05:45:03.134Z,54.21
2022-07-25T05:46:03.118Z,53.73
2022-07-25T05:47:03.171Z,53.44
2022-07-25T05:48:03.126Z,53.08
2022-07-25T05:49:03.171Z,53.37
2022-07-25T05:50:03.133Z,52.53
2022-07-25T05:51:03.148Z,51.85
2022-07-25T05:52:03.185Z,51.37
2022-07-25T05:53:03.209Z,50.79
2022-07-25T05:54:03.424Z,50.71
2022-07-25T05:55:03.166Z,50.71
2022-07-25T05:56:03.208Z,50.33
2022-07-25T05:57:03.237Z,50.55
2022-07-25T05:58:03.206Z,49.68
2022-07-25T05:59:03.248Z,49.32
2022-07-25T06:00:03.236Z,48.44
2022-07-25T06:01:03.245Z,48.35
2022-07-25T06:02:03.391Z,48.08
2022-07-25T06:03:03.406Z,48.57
2022-07-25T06:04:03.586Z,47.99
2022-07-25T06:05:03.292Z,47.60
2022-07-25T06:06:03.300Z,47.33
2022-07-25T06:07:03.344Z,47.52
2022-07-25T06:08:03.321Z,47.14
2022-07-25T06:09:03.323Z,46.58
2022-07-25T06:10:03.366Z,46.09
2022-07-25T06:11:03.363Z,45.90
2022-07-25T06:12:03.380Z,45.90
2022-07-25T06:13:03.369Z,45.81
2022-07-25T06:14:03.671Z,46.09
2022-07-25T06:15:03.404Z,46.02
2022-07-25T06:16:03.589Z,45.64
2022-07-25T06:17:03.467Z,45.34
2022-07-25T06:18:03.465Z,45.17
2022-07-25T06:19:03.470Z,45.27
2022-07-25T06:20:03.479Z,45.37
2022-07-25T06:21:03.505Z,45.37
2022-07-25T06:22:03.550Z,44.49
2022-07-25T06:23:03.521Z,44.32
2022-07-25T06:24:03.740Z,43.84
2022-07-25T06:25:03.574Z,43.74
2022-07-25T06:26:03.597Z,43.45
2022-07-25T06:27:03.592Z,43.35
2022-07-25T06:28:03.590Z,43.54
2022-07-25T06:29:03.610Z,43.74
2022-07-25T06:30:03.627Z,43.57
2022-07-25T06:31:03.709Z,43.66
2022-07-25T06:32:03.723Z,43.86
2022-07-25T06:33:03.788Z,43.66
2022-07-25T06:34:04.067Z,42.81
2022-07-25T06:35:03.746Z,43.78
2022-07-25T06:36:03.722Z,43.98
2022-07-25T06:37:03.757Z,43.10
2022-07-25T06:38:03.758Z,42.74
2022-07-25T06:39:03.768Z,42.74
2022-07-25T06:40:03.880Z,42.15
2022-07-25T06:41:03.821Z,41.47
2022-07-25T06:42:03.952Z,41.28
2022-07-25T06:43:03.846Z,41.28
2022-07-25T06:44:04.207Z,41.67
2022-07-25T06:45:03.884Z,41.77
2022-07-25T06:46:03.876Z,41.86
2022-07-25T06:47:03.964Z,42.08
2022-07-25T06:48:03.949Z,42.18
2022-07-25T06:49:03.981Z,42.36
2022-07-25T06:50:03.939Z,41.49
2022-07-25T06:51:03.945Z,41.42
2022-07-25T06:52:03.988Z,41.78
2022-07-25T06:53:03.995Z,41.51
2022-07-25T06:54:04.411Z,41.42
2022-07-25T06:55:04.024Z,41.51
2022-07-25T06:56:04.062Z,41.32
2022-07-25T06:57:04.051Z,41.42
2022-07-25T06:58:04.064Z,41.73
2022-07-25T06:59:04.098Z,41.14
2022-07-25T07:00:04.109Z,41.14
2022-07-25T07:01:04.178Z,41.16
2022-07-25T07:02:04.172Z,40.88
2022-07-25T07:03:04.231Z,40.68
2022-07-25T07:04:04.530Z,40.88
2022-07-25T07:05:04.192Z,40.48
2022-07-25T07:06:04.263Z,40.58
2022-07-25T07:07:04.268Z,40.58
2022-07-25T07:08:04.243Z,40.39
2022-07-25T07:09:04.250Z,40.48
2022-07-25T07:10:04.276Z,40.58
2022-07-25T07:11:04.294Z,40.60
2022-07-25T07:12:04.316Z,40.29
2022-07-25T07:13:04.324Z,40.21
2022-07-25T07:14:04.711Z,40.31
2022-07-25T07:15:04.364Z,40.01
2022-07-25T07:16:04.474Z,40.21
2022-07-25T07:17:04.420Z,40.01
2022-07-25T07:18:04.432Z,40.31
2022-07-25T07:19:04.899Z,39.53
2022-07-25T07:20:04.458Z,40.01
2022-07-25T07:21:04.487Z,40.01
2022-07-25T07:22:04.541Z,40.11
2022-07-25T07:23:04.528Z,40.03
2022-07-25T07:24:04.513Z,40.33
2022-07-25T07:25:04.549Z,40.03
2022-07-25T07:26:04.567Z,40.13
2022-07-25T07:27:04.644Z,40.23
2022-07-25T07:28:04.595Z,40.03
2022-07-25T07:29:04.942Z,39.94
2022-07-25T07:30:04.661Z,40.03
2022-07-25T07:31:20.041Z,40.03
2022-07-25T07:32:04.780Z,39.76
2022-07-25T07:33:04.678Z,40.55
2022-07-25T07:34:04.710Z,39.76
2022-07-25T07:35:04.739Z,39.57
2022-07-25T07:36:04.765Z,39.96
2022-07-25T07:37:04.785Z,39.88
2022-07-25T07:38:04.778Z,39.59
2022-07-25T07:39:05.146Z,39.98
2022-07-25T07:40:04.818Z,39.78
2022-07-25T07:41:04.854Z,39.69
2022-07-25T07:42:04.865Z,39.10
2022-07-25T07:43:04.887Z,39.29
2022-07-25T07:44:04.897Z,38.81
2022-07-25T07:45:04.908Z,38.90
2022-07-25T07:46:05.050Z,40.08
2022-07-25T07:47:05.002Z,39.31
2022-07-25T07:48:04.976Z,39.22
2022-07-25T07:49:05.363Z,38.92
2022-07-25T07:50:04.989Z,39.12
2022-07-25T07:51:05.045Z,38.90
2022-07-25T07:52:05.060Z,38.81
2022-07-25T07:53:05.070Z,39.20
2022-07-25T07:54:05.077Z,39.00
2022-07-25T07:55:05.102Z,38.90
2022-07-25T07:56:05.113Z,38.90
2022-07-25T07:57:05.132Z,39.20
2022-07-25T07:58:05.197Z,39.39
2022-07-25T07:59:05.580Z,39.29
2022-07-25T08:00:05.197Z,39.69
2022-07-25T08:01:05.230Z,39.59
2022-07-25T08:02:05.325Z,39.49
2022-07-25T08:03:05.287Z,39.20
2022-07-25T08:04:05.262Z,39.59
2022-07-25T08:05:05.276Z,39.49
2022-07-25T08:06:05.294Z,39.20
2022-07-25T08:07:05.323Z,39.39
2022-07-25T08:08:05.321Z,39.39
2022-07-25T08:09:05.569Z,40.08
2022-07-25T08:10:05.383Z,39.59
2022-07-25T08:11:05.390Z,39.39
2022-07-25T08:12:05.430Z,39.20
2022-07-25T08:13:05.432Z,39.69
2022-07-25T08:14:05.717Z,40.08
2022-07-25T08:15:05.479Z,39.98
2022-07-25T08:16:05.550Z,40.17
2022-07-25T08:17:05.526Z,40.08
2022-07-25T08:18:05.517Z,40.08
2022-07-25T08:19:05.697Z,39.98
2022-07-25T08:20:27.586Z,40.48
2022-07-25T08:21:05.555Z,39.80
2022-07-25T08:22:05.605Z,39.90
2022-07-25T08:23:05.617Z,39.70
2022-07-25T08:24:06.736Z,40.09
2022-07-25T08:25:05.621Z,39.70
2022-07-25T08:26:05.643Z,40.09
2022-07-25T08:27:05.665Z,40.00
2022-07-25T08:28:05.704Z,40.39
2022-07-25T08:29:18.716Z,40.21
2022-07-25T08:30:05.702Z,40.09
2022-07-25T08:31:05.786Z,39.92
2022-07-25T08:32:05.729Z,39.80
2022-07-25T08:33:05.738Z,39.61
2022-07-25T08:34:05.992Z,40.00
2022-07-25T08:35:10.992Z,40.09
2022-07-25T08:36:05.798Z,40.41
2022-07-25T08:37:05.792Z,40.58
2022-07-25T08:38:05.802Z,40.11
2022-07-25T08:39:05.863Z,39.92
2022-07-25T08:40:05.844Z,39.82
2022-07-25T08:41:05.824Z,40.01
2022-07-25T08:42:10.814Z,39.62
2022-07-25T08:43:05.887Z,39.41
2022-07-25T08:44:06.349Z,39.90
2022-07-25T08:45:05.876Z,39.80
2022-07-25T08:46:05.973Z,39.90
2022-07-25T08:47:05.922Z,40.00
2022-07-25T08:48:05.923Z,39.90
2022-07-25T08:49:06.032Z,40.39
2022-07-25T08:50:05.925Z,40.39
2022-07-25T08:51:05.950Z,40.39
2022-07-25T08:52:06.004Z,40.68
2022-07-25T08:53:31.599Z,40.29
2022-07-25T08:54:06.262Z,40.88
2022-07-25T08:55:06.119Z,40.68
2022-07-25T08:56:12.228Z,40.29
2022-07-25T08:57:06.004Z,40.29
2022-07-25T08:58:06.028Z,40.78
2022-07-25T08:59:06.052Z,41.17
2022-07-25T09:00:06.030Z,40.09
2022-07-25T09:01:06.047Z,40.19
2022-07-25T09:02:06.118Z,39.90
2022-07-25T09:03:06.108Z,40.09
2022-07-25T09:04:06.381Z,40.11
2022-07-25T09:05:06.099Z,40.29
2022-07-25T09:06:06.082Z,40.58
2022-07-25T09:07:08.157Z,40.29
2022-07-25T09:08:06.115Z,40.68
2022-07-25T09:09:06.120Z,40.88
2022-07-25T09:10:06.137Z,40.68
2022-07-25T09:11:06.168Z,40.58
2022-07-25T09:12:06.154Z,40.68
2022-07-25T09:13:06.251Z,40.48
2022-07-25T09:14:07.180Z,40.68
2022-07-25T09:15:06.176Z,40.97
2022-07-25T09:16:06.328Z,40.97
2022-07-25T09:17:06.235Z,41.27
2022-07-25T09:18:06.225Z,40.78
2022-07-25T09:19:06.214Z,40.78
2022-07-25T09:20:06.242Z,41.36
2022-07-25T09:21:06.248Z,41.19
2022-07-25T09:22:06.284Z,41.28
2022-07-25T09:23:06.264Z,41.38
2022-07-25T09:24:06.727Z,40.99
2022-07-25T09:25:06.282Z,40.70
2022-07-25T09:26:06.287Z,41.38
2022-07-25T09:27:06.330Z,41.38
2022-07-25T09:28:06.314Z,41.38
2022-07-25T09:29:06.478Z,41.67
2022-07-25T09:30:06.336Z,41.87
2022-07-25T09:31:06.361Z,41.38
2022-07-25T09:32:06.357Z,41.58
2022-07-25T09:33:06.361Z,41.28
2022-07-25T09:34:06.619Z,41.48
2022-07-25T09:35:06.408Z,41.28
2022-07-25T09:36:06.374Z,41.58
2022-07-25T09:37:06.397Z,41.80
2022-07-25T09:38:06.396Z,41.99
2022-07-25T09:39:06.447Z,41.70
2022-07-25T09:40:06.432Z,41.60
2022-07-25T09:41:06.410Z,41.41
2022-07-25T09:42:06.457Z,41.89
2022-07-25T09:43:06.453Z,41.41
2022-07-25T09:44:06.725Z,41.41
2022-07-25T09:45:06.476Z,41.50
2022-07-25T09:46:06.547Z,41.41
2022-07-25T09:47:06.512Z,41.31
2022-07-25T09:48:06.479Z,41.60
2022-07-25T09:49:06.619Z,41.31
2022-07-25T09:50:06.533Z,41.31
2022-07-25T09:51:06.523Z,40.72
2022-07-25T09:52:06.571Z,40.92
2022-07-25T09:53:06.524Z,40.92
2022-07-25T09:54:06.983Z,40.63
2022-07-25T09:55:06.651Z,40.33
2022-07-25T09:56:06.595Z,40.43
2022-07-25T09:57:06.574Z,40.82
2022-07-25T09:58:06.630Z,40.53
2022-07-25T09:59:06.591Z,40.14
2022-07-25T10:00:06.595Z,40.14
2022-07-25T10:01:06.814Z,40.23
2022-07-25T10:02:06.654Z,40.23
2022-07-25T10:03:06.734Z,40.33
2022-07-25T10:04:07.095Z,40.04
2022-07-25T10:05:06.687Z,40.14
2022-07-25T10:06:06.690Z,39.65
2022-07-25T10:07:06.692Z,40.04
2022-07-25T10:08:06.774Z,40.63
2022-07-25T10:09:06.748Z,40.33
2022-07-25T10:10:06.691Z,40.14
2022-07-25T10:11:06.771Z,40.35
2022-07-25T10:12:06.768Z,40.25
2022-07-25T10:13:10.592Z,40.45
2022-07-25T10:14:07.229Z,40.35
2022-07-25T10:15:06.729Z,40.16
2022-07-25T10:16:06.763Z,40.45
2022-07-25T10:17:06.881Z,40.64
2022-07-25T10:18:06.860Z,40.06
2022-07-25T10:19:06.755Z,39.86
2022-07-25T10:20:06.779Z,39.57
2022-07-25T10:21:24.407Z,39.47
2022-07-25T10:22:06.806Z,39.76
2022-07-25T10:23:06.853Z,40.16
2022-07-25T10:24:07.254Z,40.16
2022-07-25T10:25:06.968Z,39.57
2022-07-25T10:26:06.850Z,39.47
2022-07-25T10:27:06.877Z,39.47
2022-07-25T10:28:06.875Z,39.76
2022-07-25T10:29:06.863Z,39.67
2022-07-25T10:30:06.878Z,39.47
2022-07-25T10:31:07.060Z,39.37
2022-07-25T10:32:06.910Z,39.57
2022-07-25T10:33:06.909Z,39.76
2022-07-25T10:34:07.473Z,39.76
2022-07-25T10:35:06.937Z,40.06
2022-07-25T10:36:06.961Z,39.86
2022-07-25T10:37:06.968Z,39.76
2022-07-25T10:38:06.954Z,40.06
2022-07-25T10:39:06.958Z,39.86
2022-07-25T10:40:06.964Z,39.76
2022-07-25T10:41:06.981Z,39.57
2022-07-25T10:42:07.014Z,39.57
2022-07-25T10:43:07.010Z,39.96
2022-07-25T10:44:07.334Z,39.67
2022-07-25T10:45:07.016Z,38.98
2022-07-25T10:46:07.133Z,38.40
2022-07-25T10:47:07.070Z,39.08
2022-07-25T10:48:07.082Z,38.79
2022-07-25T10:49:07.383Z,39.08
2022-07-25T10:50:25.208Z,39.39
2022-07-25T10:51:07.051Z,39.00
2022-07-25T10:52:07.121Z,38.69
2022-07-25T10:53:07.111Z,38.59
2022-07-25T10:54:07.096Z,39.20
2022-07-25T10:55:07.081Z,39.39
2022-07-25T10:56:07.233Z,39.18
2022-07-25T10:57:07.139Z,39.29
2022-07-25T10:58:17.770Z,39.00
2022-07-25T10:59:07.589Z,39.10
2022-07-25T11:00:07.144Z,39.00
2022-07-25T11:01:07.214Z,39.49
2022-07-25T11:02:07.258Z,39.00
2022-07-25T11:03:07.174Z,38.89
2022-07-25T11:04:07.204Z,39.29
2022-07-25T11:05:07.191Z,38.98
2022-07-25T11:06:07.194Z,39.08
2022-07-25T11:07:07.243Z,39.29
2022-07-25T11:08:21.217Z,38.79
2022-07-25T11:09:07.560Z,38.98
2022-07-25T11:10:07.264Z,39.10
2022-07-25T11:11:07.272Z,39.67
2022-07-25T11:12:07.262Z,39.28
2022-07-25T11:13:07.284Z,39.76
2022-07-25T11:14:07.287Z,39.10
2022-07-25T11:15:07.321Z,38.40
2022-07-25T11:16:07.320Z,38.20
2022-07-25T11:17:07.341Z,38.12
2022-07-25T11:18:07.352Z,38.10
2022-07-25T11:19:07.773Z,37.91
2022-07-25T11:20:07.314Z,38.01
2022-07-25T11:21:07.370Z,38.01
2022-07-25T11:22:07.364Z,38.30
2022-07-25T11:23:07.368Z,38.49
2022-07-25T11:24:07.386Z,38.49
2022-07-25T11:25:07.367Z,38.59
2022-07-25T11:26:07.382Z,38.30
2022-07-25T11:27:12.398Z,38.49
2022-07-25T11:28:07.401Z,39.08
2022-07-25T11:29:07.744Z,38.59
2022-07-25T11:30:07.541Z,38.30
2022-07-25T11:31:07.434Z,38.01
2022-07-25T11:32:07.551Z,38.30
2022-07-25T11:33:07.466Z,38.40
2022-07-25T11:34:07.471Z,38.59
2022-07-25T11:35:07.452Z,38.69
2022-07-25T11:36:07.495Z,38.49
2022-07-25T11:37:07.512Z,38.01
2022-07-25T11:38:07.522Z,37.81
2022-07-25T11:39:07.913Z,37.12
2022-07-25T11:40:07.593Z,37.22
2022-07-25T11:41:07.580Z,37.52
2022-07-25T11:42:07.547Z,37.22
2022-07-25T11:43:07.552Z,37.91
2022-07-25T11:44:07.563Z,38.10
2022-07-25T11:45:07.569Z,37.91
2022-07-25T11:46:07.678Z,37.91
2022-07-25T11:47:07.613Z,37.79
2022-07-25T11:48:07.631Z,38.09
2022-07-25T11:49:07.970Z,37.70
2022-07-25T11:50:07.649Z,36.52
2022-07-25T11:51:07.632Z,36.93
2022-07-25T11:52:07.641Z,37.12
2022-07-25T11:53:07.632Z,36.83
2022-07-25T11:54:07.637Z,37.12
2022-07-25T11:55:07.666Z,37.81
2022-07-25T11:56:32.116Z,38.01
2022-07-25T11:57:07.691Z,37.81
2022-07-25T11:58:07.681Z,37.62
2022-07-25T11:59:08.327Z,36.34
2022-07-25T12:00:07.735Z,36.36
2022-07-25T12:01:07.767Z,36.75
2022-07-25T12:02:07.827Z,36.65
2022-07-25T12:03:07.877Z,36.46
2022-07-25T12:04:07.762Z,35.87
2022-07-25T12:05:07.755Z,35.87
2022-07-25T12:06:07.756Z,35.68
2022-07-25T12:07:07.780Z,35.77
2022-07-25T12:08:07.772Z,35.58
2022-07-25T12:09:08.670Z,36.55
2022-07-25T12:10:07.802Z,36.16
2022-07-25T12:11:07.817Z,36.55
2022-07-25T12:12:07.824Z,36.65
2022-07-25T12:13:07.817Z,35.97
2022-07-25T12:14:07.833Z,36.07
2022-07-25T12:15:07.845Z,35.97
2022-07-25T12:16:07.885Z,36.16
2022-07-25T12:17:07.933Z,35.68
2022-07-25T12:18:07.892Z,35.48
2022-07-25T12:19:08.245Z,35.68
2022-07-25T12:20:10.928Z,35.97
2022-07-25T12:21:07.906Z,35.68
2022-07-25T12:22:07.906Z,35.48
2022-07-25T12:23:07.941Z,35.38
2022-07-25T12:24:07.953Z,35.28
2022-07-25T12:25:07.942Z,35.19
2022-07-25T12:26:07.956Z,35.28
2022-07-25T12:27:07.958Z,35.19
2022-07-25T12:28:07.956Z,35.58
2022-07-25T12:29:08.163Z,35.68
2022-07-25T12:30:08.008Z,35.87
2022-07-25T12:31:08.038Z,35.89
2022-07-25T12:32:08.010Z,35.50
2022-07-25T12:33:08.008Z,35.38
2022-07-25T12:34:08.018Z,35.21
2022-07-25T12:35:08.049Z,35.09
2022-07-25T12:36:08.700Z,35.30
2022-07-25T12:37:08.048Z,35.21
2022-07-25T12:38:08.055Z,35.11
2022-07-25T12:39:08.460Z,35.30
2022-07-25T12:40:08.084Z,35.11
2022-07-25T12:41:08.225Z,35.01
2022-07-25T12:42:08.102Z,35.21
2022-07-25T12:43:08.115Z,34.91
2022-07-25T12:44:08.119Z,34.72
2022-07-25T12:45:08.122Z,34.52
2022-07-25T12:46:08.144Z,34.72
2022-07-25T12:47:08.268Z,34.52
2022-07-25T12:48:08.134Z,34.72
2022-07-25T12:49:08.465Z,34.62
2022-07-25T12:50:08.169Z,34.62
2022-07-25T12:51:08.192Z,34.52
2022-07-25T12:52:08.219Z,34.72
2022-07-25T12:53:08.205Z,34.33
2022-07-25T12:54:08.596Z,34.81
2022-07-25T12:55:08.396Z,34.54
2022-07-25T12:56:08.286Z,34.03
2022-07-25T12:57:08.266Z,33.94
2022-07-25T12:58:08.257Z,33.94
2022-07-25T12:59:08.679Z,33.74
2022-07-25T13:00:08.275Z,33.64
2022-07-25T13:01:08.341Z,33.54
2022-07-25T13:02:08.350Z,33.95
2022-07-25T13:03:08.290Z,33.74
2022-07-25T13:04:08.301Z,33.64
2022-07-25T13:05:08.300Z,33.56
2022-07-25T13:06:08.333Z,33.64
2022-07-25T13:07:08.448Z,33.54
2022-07-25T13:08:08.336Z,34.03
2022-07-25T13:09:08.593Z,34.33
2022-07-25T13:10:08.359Z,34.23
2022-07-25T13:11:08.374Z,34.14
2022-07-25T13:12:09.619Z,34.05
2022-07-25T13:13:08.366Z,34.24
2022-07-25T13:14:08.389Z,34.05